createdAt,value
2018-07-26T00:00:42.429Z,20.88
2018-07-26T00:01:42.390Z,20.96
2018-07-26T00:02:42.346Z,20.93
2018-07-26T00:03:42.334Z,20.95
2018-07-26T00:04:42.294Z,21.00
2018-07-26T00:05:42.221Z,20.96
2018-07-26T00:06:42.219Z,21.05
2018-07-26T00:07:42.134Z,21.11
2018-07-26T00:08:42.095Z,21.18
2018-07-26T00:09:42.052Z,21.22
2018-07-26T00:10:42.043Z,21.29
2018-07-26T00:11:41.965Z,21.35
2018-07-26T00:12:41.923Z,21.32
2018-07-26T00:13:41.918Z,21.22
2018-07-26T00:14:41.874Z,21.17
2018-07-26T00:15:41.799Z,21.09
2018-07-26T00:16:41.790Z,20.90
2018-07-26T00:17:41.714Z,21.06
2018-07-26T00:18:41.707Z,20.87
2018-07-26T00:19:41.667Z,21.00
2018-07-26T00:20:41.640Z,20.99
2018-07-26T00:21:41.598Z,20.85
2018-07-26T00:22:41.506Z,20.87
2018-07-26T00:23:41.462Z,20.90
2018-07-26T00:24:41.419Z,21.03
2018-07-26T00:25:41.409Z,20.87
2018-07-26T00:26:41.334Z,20.95
2018-07-26T00:27:41.381Z,21.03
2018-07-26T00:28:41.249Z,20.99
2018-07-26T00:29:41.208Z,21.07
2018-07-26T00:30:41.199Z,21.05
2018-07-26T00:31:41.127Z,21.09
2018-07-26T00:32:41.082Z,21.09
2018-07-26T00:33:41.040Z,21.20
2018-07-26T00:34:40.998Z,21.21
2018-07-26T00:35:40.995Z,21.12
2018-07-26T00:36:40.914Z,21.02
2018-07-26T00:37:40.871Z,21.02
2018-07-26T00:38:40.829Z,20.99
2018-07-26T00:39:40.790Z,21.06
2018-07-26T00:40:40.776Z,21.06
2018-07-26T00:41:40.705Z,21.11
2018-07-26T00:42:40.657Z,21.14
2018-07-26T00:43:40.620Z,21.20
2018-07-26T00:44:40.614Z,21.21
2018-07-26T00:45:40.561Z,21.18
2018-07-26T00:46:40.491Z,21.20
2018-07-26T00:47:40.451Z,21.22
2018-07-26T00:48:40.436Z,21.27
2018-07-26T00:49:40.362Z,21.20
2018-07-26T00:50:40.355Z,21.21
2018-07-26T00:51:40.280Z,21.24
2018-07-26T00:52:40.238Z,21.17
2018-07-26T00:53:40.190Z,21.20
2018-07-26T00:54:40.153Z,21.14
2018-07-26T00:55:40.145Z,21.11
2018-07-26T00:56:40.100Z,21.03
2018-07-26T00:57:40.023Z,20.99
2018-07-26T00:58:39.982Z,21.00
2018-07-26T00:59:39.940Z,20.99
2018-07-26T01:00:39.897Z,20.92
2018-07-26T01:01:39.887Z,20.90
2018-07-26T01:02:39.812Z,20.84
2018-07-26T01:03:39.769Z,20.92
2018-07-26T01:04:39.728Z,20.82
2018-07-26T01:05:39.690Z,20.84
2018-07-26T01:06:39.676Z,20.85
2018-07-26T01:07:39.633Z,20.74
2018-07-26T01:08:39.561Z,20.74
2018-07-26T01:09:39.535Z,20.75
2018-07-26T01:10:39.472Z,20.65
2018-07-26T01:11:39.472Z,20.55
2018-07-26T01:12:39.387Z,20.48
2018-07-26T01:13:39.345Z,20.41
2018-07-26T01:14:39.306Z,20.34
2018-07-26T01:15:39.260Z,20.36
2018-07-26T01:16:39.250Z,20.28
2018-07-26T01:17:39.208Z,20.19
2018-07-26T01:18:39.132Z,20.14
2018-07-26T01:19:39.089Z,20.00
2018-07-26T01:20:39.046Z,20.03
2018-07-26T01:21:39.008Z,20.00
2018-07-26T01:22:39.007Z,19.96
2018-07-26T01:23:38.922Z,19.92
2018-07-26T01:24:38.875Z,19.96
2018-07-26T01:25:38.834Z,19.89
2018-07-26T01:26:38.793Z,20.02
2018-07-26T01:27:38.784Z,19.95
2018-07-26T01:28:38.706Z,19.96
2018-07-26T01:29:38.663Z,19.95
2018-07-26T01:30:38.620Z,20.00
2018-07-26T01:31:38.610Z,20.10
2018-07-26T01:32:38.533Z,20.11
2018-07-26T01:33:38.491Z,20.11
2018-07-26T01:34:38.479Z,20.22
2018-07-26T01:35:38.406Z,20.26
2018-07-26T01:36:38.362Z,20.22
2018-07-26T01:37:38.319Z,20.32
2018-07-26T01:38:38.276Z,20.34
2018-07-26T01:39:38.277Z,20.37
2018-07-26T01:40:38.196Z,20.36
2018-07-26T01:41:38.147Z,20.32
2018-07-26T01:42:38.108Z,20.36
2018-07-26T01:43:38.096Z,20.39
2018-07-26T01:44:38.053Z,20.41
2018-07-26T01:45:37.979Z,20.41
2018-07-26T01:46:37.934Z,20.36
2018-07-26T01:47:37.898Z,20.37
2018-07-26T01:48:37.853Z,20.37
2018-07-26T01:49:37.838Z,20.41
2018-07-26T01:50:37.760Z,20.34
2018-07-26T01:51:37.720Z,20.40
2018-07-26T01:52:37.676Z,20.32
2018-07-26T01:53:37.633Z,20.31
2018-07-26T01:54:37.621Z,20.34
2018-07-26T01:55:37.590Z,20.41
2018-07-26T01:56:37.506Z,20.48
2018-07-26T01:57:37.461Z,20.44
2018-07-26T01:58:37.421Z,20.43
2018-07-26T01:59:37.384Z,20.47
2018-07-26T02:00:37.370Z,20.52
2018-07-26T02:01:37.305Z,20.51
2018-07-26T02:02:37.251Z,20.60
2018-07-26T02:03:37.209Z,20.58
2018-07-26T02:04:37.196Z,20.66
2018-07-26T02:05:37.121Z,20.72
2018-07-26T02:06:37.077Z,20.70
2018-07-26T02:07:37.035Z,20.77
2018-07-26T02:08:37.031Z,20.67
2018-07-26T02:09:36.949Z,20.62
2018-07-26T02:10:36.906Z,20.60
2018-07-26T02:11:36.900Z,20.63
2018-07-26T02:12:36.820Z,20.66
2018-07-26T02:13:36.783Z,20.66
2018-07-26T02:14:36.738Z,20.62
2018-07-26T02:15:36.693Z,20.66
2018-07-26T02:16:36.679Z,20.58
2018-07-26T02:17:36.644Z,20.58
2018-07-26T02:18:36.570Z,20.59
2018-07-26T02:19:36.522Z,20.63
2018-07-26T02:20:36.477Z,20.62
2018-07-26T02:21:36.465Z,20.47
2018-07-26T02:22:36.423Z,20.56
2018-07-26T02:23:36.351Z,20.48
2018-07-26T02:24:36.304Z,20.55
2018-07-26T02:25:36.261Z,20.48
2018-07-26T02:26:36.222Z,20.51
2018-07-26T02:27:36.210Z,20.52
2018-07-26T02:28:36.133Z,20.62
2018-07-26T02:29:36.123Z,20.50
2018-07-26T02:30:36.051Z,20.50
2018-07-26T02:31:36.006Z,20.22
2018-07-26T02:32:35.969Z,20.10
2018-07-26T02:33:35.957Z,20.03
2018-07-26T02:34:35.879Z,19.91
2018-07-26T02:35:35.835Z,19.91
2018-07-26T02:36:35.791Z,19.85
2018-07-26T02:37:35.750Z,19.82
2018-07-26T02:38:35.742Z,19.82
2018-07-26T02:39:35.662Z,19.91
2018-07-26T02:40:35.631Z,19.82
2018-07-26T02:41:35.590Z,19.79
2018-07-26T02:42:35.532Z,19.88
2018-07-26T02:43:35.522Z,20.00
2018-07-26T02:44:35.446Z,19.91
2018-07-26T02:45:35.407Z,19.89
2018-07-26T02:46:35.394Z,19.96
2018-07-26T02:47:35.319Z,20.02
2018-07-26T02:48:35.274Z,20.02
2018-07-26T02:49:35.263Z,20.04
2018-07-26T02:50:35.186Z,20.02
2018-07-26T02:51:35.145Z,20.07
2018-07-26T02:52:35.106Z,20.09
2018-07-26T02:53:35.059Z,20.11
2018-07-26T02:54:35.050Z,20.14
2018-07-26T02:55:35.008Z,20.10
2018-07-26T02:56:34.927Z,20.14
2018-07-26T02:57:34.887Z,20.10
2018-07-26T02:58:34.874Z,20.00
2018-07-26T02:59:34.800Z,19.95
2018-07-26T03:00:34.786Z,19.91
2018-07-26T03:01:34.715Z,19.88
2018-07-26T03:02:34.669Z,19.76
2018-07-26T03:03:34.627Z,19.73
2018-07-26T03:04:34.589Z,19.76
2018-07-26T03:05:34.579Z,19.66
2018-07-26T03:06:34.501Z,19.56
2018-07-26T03:07:34.486Z,19.63
2018-07-26T03:08:34.440Z,19.59
2018-07-26T03:09:34.370Z,19.58
2018-07-26T03:10:34.327Z,19.54
2018-07-26T03:11:34.280Z,19.45
2018-07-26T03:12:34.241Z,19.44
2018-07-26T03:13:34.225Z,19.41
2018-07-26T03:14:34.150Z,19.30
2018-07-26T03:15:34.108Z,19.36
2018-07-26T03:16:34.061Z,19.29
2018-07-26T03:17:34.017Z,19.36
2018-07-26T03:18:34.012Z,19.40
2018-07-26T03:19:33.937Z,19.41
2018-07-26T03:20:33.887Z,19.48
2018-07-26T03:21:33.845Z,19.48
2018-07-26T03:22:33.805Z,19.51
2018-07-26T03:23:33.806Z,19.55
2018-07-26T03:24:33.722Z,19.63
2018-07-26T03:25:33.668Z,19.63
2018-07-26T03:26:33.629Z,19.70
2018-07-26T03:27:33.583Z,19.79
2018-07-26T03:28:33.572Z,19.79
2018-07-26T03:29:33.493Z,19.82
2018-07-26T03:30:33.462Z,19.89
2018-07-26T03:31:33.412Z,19.86
2018-07-26T03:32:33.366Z,19.92
2018-07-26T03:33:33.357Z,19.95
2018-07-26T03:34:33.280Z,19.99
2018-07-26T03:35:33.237Z,19.88
2018-07-26T03:36:33.220Z,19.86
2018-07-26T03:37:33.148Z,19.81
2018-07-26T03:38:33.140Z,19.82
2018-07-26T03:39:33.062Z,19.71
2018-07-26T03:40:33.018Z,19.64
2018-07-26T03:41:32.983Z,19.71
2018-07-26T03:42:32.933Z,19.79
2018-07-26T03:43:32.947Z,19.81
2018-07-26T03:44:32.845Z,19.77
2018-07-26T03:45:32.832Z,19.86
2018-07-26T03:46:32.755Z,19.88
2018-07-26T03:47:32.712Z,19.92
2018-07-26T03:48:32.670Z,20.02
2018-07-26T03:49:32.628Z,19.92
2018-07-26T03:50:32.615Z,19.91
2018-07-26T03:51:32.540Z,19.85
2018-07-26T03:52:32.497Z,19.88
2018-07-26T03:53:32.484Z,19.89
2018-07-26T03:54:32.409Z,19.94
2018-07-26T03:55:32.397Z,19.96
2018-07-26T03:56:32.322Z,20.02
2018-07-26T03:57:32.280Z,20.11
2018-07-26T03:58:32.267Z,20.18
2018-07-26T03:59:32.191Z,20.26
2018-07-26T04:00:32.151Z,20.31
2018-07-26T04:01:32.106Z,20.37
2018-07-26T04:02:32.104Z,20.40
2018-07-26T04:03:32.019Z,20.40
2018-07-26T04:04:31.975Z,20.56
2018-07-26T04:05:32.000Z,20.58
2018-07-26T04:06:31.888Z,20.65
2018-07-26T04:07:31.881Z,20.52
2018-07-26T04:08:31.858Z,20.47
2018-07-26T04:09:31.759Z,20.43
2018-07-26T04:10:31.716Z,20.31
2018-07-26T04:11:31.672Z,20.25
2018-07-26T04:12:31.629Z,20.29
2018-07-26T04:13:31.615Z,20.25
2018-07-26T04:14:31.542Z,20.25
2018-07-26T04:15:31.500Z,20.18
2018-07-26T04:16:31.455Z,20.18
2018-07-26T04:17:31.447Z,20.25
2018-07-26T04:18:31.367Z,20.26
2018-07-26T04:19:31.360Z,20.25
2018-07-26T04:20:31.282Z,20.36
2018-07-26T04:21:31.241Z,20.40
2018-07-26T04:22:31.197Z,20.34
2018-07-26T04:23:31.155Z,20.40
2018-07-26T04:24:31.143Z,20.37
2018-07-26T04:25:31.117Z,20.44
2018-07-26T04:26:31.021Z,20.44
2018-07-26T04:27:30.979Z,20.59
2018-07-26T04:28:30.935Z,20.50
2018-07-26T04:29:30.891Z,20.60
2018-07-26T04:30:30.882Z,20.67
2018-07-26T04:31:30.828Z,20.62
2018-07-26T04:32:30.792Z,20.67
2018-07-26T04:33:30.720Z,20.72
2018-07-26T04:34:30.677Z,20.70
2018-07-26T04:35:30.670Z,20.69
2018-07-26T04:36:30.588Z,20.67
2018-07-26T04:37:30.576Z,20.59
2018-07-26T04:38:30.504Z,20.58
2018-07-26T04:39:30.502Z,20.60
2018-07-26T04:40:30.419Z,20.52
2018-07-26T04:41:30.374Z,20.56
2018-07-26T04:42:30.330Z,20.59
2018-07-26T04:43:30.292Z,20.59
2018-07-26T04:44:30.291Z,20.69
2018-07-26T04:45:30.214Z,20.80
2018-07-26T04:46:30.166Z,20.84
2018-07-26T04:47:30.149Z,20.82
2018-07-26T04:48:30.072Z,20.93
2018-07-26T04:49:30.028Z,21.06
2018-07-26T04:50:29.987Z,21.03
2018-07-26T04:51:29.973Z,21.14
2018-07-26T04:52:29.898Z,21.12
2018-07-26T04:53:29.888Z,21.15
2018-07-26T04:54:29.817Z,21.20
2018-07-26T04:55:29.768Z,21.27
2018-07-26T04:56:29.729Z,21.30
2018-07-26T04:57:29.714Z,21.33
2018-07-26T04:58:29.640Z,21.37
2018-07-26T04:59:29.604Z,21.36
2018-07-26T05:00:29.557Z,21.36
2018-07-26T05:01:29.551Z,21.37
2018-07-26T05:02:29.472Z,21.37
2018-07-26T05:03:29.424Z,21.35
2018-07-26T05:04:29.393Z,21.43
2018-07-26T05:05:29.374Z,21.40
2018-07-26T05:06:29.298Z,21.51
2018-07-26T05:07:29.254Z,21.46
2018-07-26T05:08:29.212Z,21.50
2018-07-26T05:09:29.202Z,21.52
2018-07-26T05:10:29.143Z,21.54
2018-07-26T05:11:29.084Z,21.55
2018-07-26T05:12:29.074Z,21.54
2018-07-26T05:13:28.999Z,21.54
2018-07-26T05:14:28.954Z,21.52
2018-07-26T05:15:28.917Z,21.43
2018-07-26T05:16:28.906Z,21.45
2018-07-26T05:17:28.833Z,21.43
2018-07-26T05:18:28.845Z,21.43
2018-07-26T05:19:28.753Z,21.45
2018-07-26T05:20:28.702Z,21.36
2018-07-26T05:21:28.698Z,21.37
2018-07-26T05:22:28.645Z,21.37
2018-07-26T05:23:28.606Z,21.37
2018-07-26T05:24:28.529Z,21.40
2018-07-26T05:25:28.492Z,21.32
2018-07-26T05:26:28.444Z,21.36
2018-07-26T05:27:28.402Z,21.37
2018-07-26T05:28:28.392Z,21.36
2018-07-26T05:29:28.316Z,21.37
2018-07-26T05:30:28.273Z,21.29
2018-07-26T05:31:28.231Z,21.32
2018-07-26T05:32:28.188Z,21.24
2018-07-26T05:33:28.175Z,21.22
2018-07-26T05:34:28.137Z,21.18
2018-07-26T05:35:28.064Z,21.24
2018-07-26T05:36:28.018Z,21.17
2018-07-26T05:37:28.015Z,21.20
2018-07-26T05:38:27.932Z,21.22
2018-07-26T05:39:27.890Z,21.24
2018-07-26T05:40:27.844Z,21.30
2018-07-26T05:41:27.801Z,21.29
2018-07-26T05:42:27.795Z,21.30
2018-07-26T05:43:27.823Z,21.36
2018-07-26T05:44:27.675Z,21.37
2018-07-26T05:45:27.665Z,21.35
2018-07-26T05:46:27.623Z,21.32
2018-07-26T05:47:27.547Z,21.36
2018-07-26T05:48:27.504Z,21.42
2018-07-26T05:49:27.468Z,21.40
2018-07-26T05:50:27.453Z,21.37
2018-07-26T05:51:27.380Z,21.50
2018-07-26T05:52:27.340Z,21.58
2018-07-26T05:53:27.391Z,21.61
2018-07-26T05:54:27.247Z,21.54
2018-07-26T05:55:27.208Z,21.58
2018-07-26T05:56:27.164Z,21.54
2018-07-26T05:57:27.125Z,21.61
2018-07-26T05:58:27.114Z,21.61
2018-07-26T05:59:27.041Z,21.77
2018-07-26T06:00:26.995Z,21.73
2018-07-26T06:01:26.986Z,21.69
2018-07-26T06:02:26.907Z,21.79
2018-07-26T06:03:26.865Z,21.82
2018-07-26T06:04:26.828Z,21.88
2018-07-26T06:05:26.783Z,21.79
2018-07-26T06:06:26.769Z,21.80
2018-07-26T06:07:26.699Z,21.82
2018-07-26T06:08:26.657Z,21.93
2018-07-26T06:09:26.614Z,21.95
2018-07-26T06:10:26.570Z,21.95
2018-07-26T06:11:26.576Z,22.06
2018-07-26T06:12:26.487Z,21.99
2018-07-26T06:13:26.447Z,22.02
2018-07-26T06:14:26.400Z,22.02
2018-07-26T06:15:26.359Z,22.13
2018-07-26T06:16:26.358Z,22.06
2018-07-26T06:17:26.314Z,22.08
2018-07-26T06:18:26.231Z,22.17
2018-07-26T06:19:26.219Z,22.11
2018-07-26T06:20:26.149Z,22.20
2018-07-26T06:21:26.105Z,22.22
2018-07-26T06:22:26.100Z,22.25
2018-07-26T06:23:26.021Z,22.28
2018-07-26T06:24:25.977Z,22.23
2018-07-26T06:25:25.934Z,22.28
2018-07-26T06:26:25.895Z,22.25
2018-07-26T06:27:25.886Z,22.26
2018-07-26T06:28:25.808Z,22.32
2018-07-26T06:29:25.767Z,22.25
2018-07-26T06:30:25.727Z,22.30
2018-07-26T06:31:25.720Z,22.35
2018-07-26T06:32:25.642Z,22.35
2018-07-26T06:33:25.652Z,22.26
2018-07-26T06:34:25.560Z,22.32
2018-07-26T06:35:25.516Z,22.35
2018-07-26T06:36:25.506Z,22.38
2018-07-26T06:37:25.432Z,22.35
2018-07-26T06:38:25.423Z,22.36
2018-07-26T06:39:25.400Z,22.43
2018-07-26T06:40:25.310Z,22.47
2018-07-26T06:41:25.260Z,22.41
2018-07-26T06:42:25.266Z,22.51
2018-07-26T06:43:25.184Z,22.43
2018-07-26T06:44:25.184Z,22.51
2018-07-26T06:45:25.134Z,22.53
2018-07-26T06:46:25.054Z,22.50
2018-07-26T06:47:25.011Z,22.51
2018-07-26T06:48:24.969Z,22.54
2018-07-26T06:49:24.927Z,22.65
2018-07-26T06:50:24.917Z,22.66
2018-07-26T06:51:24.844Z,22.66
2018-07-26T06:52:24.836Z,22.65
2018-07-26T06:53:24.763Z,22.75
2018-07-26T06:54:24.721Z,22.70
2018-07-26T06:55:24.675Z,22.78
2018-07-26T06:56:24.670Z,22.87
2018-07-26T06:57:24.591Z,22.81
2018-07-26T06:58:24.583Z,22.85
2018-07-26T06:59:24.506Z,22.87
2018-07-26T07:00:24.468Z,22.88
2018-07-26T07:01:24.472Z,22.96
2018-07-26T07:02:24.382Z,22.96
2018-07-26T07:03:24.341Z,22.96
2018-07-26T07:04:24.302Z,23.02
2018-07-26T07:05:24.258Z,23.09
2018-07-26T07:06:24.249Z,23.09
2018-07-26T07:07:24.174Z,23.09
2018-07-26T07:08:24.133Z,23.17
2018-07-26T07:09:24.093Z,23.18
2018-07-26T07:10:24.084Z,23.20
2018-07-26T07:11:24.008Z,23.20
2018-07-26T07:12:23.967Z,23.23
2018-07-26T07:13:23.927Z,23.36
2018-07-26T07:14:23.882Z,23.34
2018-07-26T07:15:23.873Z,23.36
2018-07-26T07:16:23.832Z,23.41
2018-07-26T07:17:23.759Z,23.40
2018-07-26T07:18:23.717Z,23.55
2018-07-26T07:19:23.684Z,23.48
2018-07-26T07:20:23.713Z,23.56
2018-07-26T07:21:23.598Z,23.56
2018-07-26T07:22:23.591Z,23.63
2018-07-26T07:23:23.509Z,23.71
2018-07-26T07:24:23.468Z,23.73
2018-07-26T07:25:23.428Z,23.66
2018-07-26T07:26:23.389Z,23.91
2018-07-26T07:27:23.378Z,23.84
2018-07-26T07:28:23.305Z,23.93
2018-07-26T07:29:23.264Z,23.95
2018-07-26T07:30:23.252Z,23.98
2018-07-26T07:31:23.213Z,24.01
2018-07-26T07:32:23.140Z,24.16
2018-07-26T07:33:23.134Z,24.13
2018-07-26T07:34:23.056Z,24.14
2018-07-26T07:35:23.056Z,24.24
2018-07-26T07:36:22.975Z,24.28
2018-07-26T07:37:22.957Z,24.38
2018-07-26T07:38:22.894Z,24.26
2018-07-26T07:39:22.851Z,24.30
2018-07-26T07:40:22.842Z,24.42
2018-07-26T07:41:22.772Z,24.40
2018-07-26T07:42:22.727Z,24.40
2018-07-26T07:43:22.715Z,24.42
2018-07-26T07:44:22.650Z,24.51
2018-07-26T07:45:22.640Z,24.58
2018-07-26T07:46:22.573Z,24.55
2018-07-26T07:47:22.562Z,24.70
2018-07-26T07:48:22.486Z,24.69
2018-07-26T07:49:22.475Z,24.76
2018-07-26T07:50:22.402Z,24.84
2018-07-26T07:51:22.362Z,24.85
2018-07-26T07:52:22.319Z,24.96
2018-07-26T07:53:22.280Z,25.03
2018-07-26T07:54:22.365Z,25.03
2018-07-26T07:55:22.198Z,25.04
2018-07-26T07:56:22.159Z,25.08
2018-07-26T07:57:22.116Z,25.13
2018-07-26T07:58:22.077Z,25.23
2018-07-26T07:59:22.073Z,25.23
2018-07-26T08:00:22.000Z,25.35
2018-07-26T08:01:21.975Z,25.33
2018-07-26T08:02:21.916Z,25.46
2018-07-26T08:03:21.905Z,25.44
2018-07-26T08:04:21.831Z,25.59
2018-07-26T08:05:21.832Z,25.50
2018-07-26T08:06:21.755Z,25.68
2018-07-26T08:07:21.746Z,25.65
2018-07-26T08:08:21.668Z,25.81
2018-07-26T08:09:21.630Z,25.77
2018-07-26T08:10:21.591Z,25.88
2018-07-26T08:11:21.602Z,25.88
2018-07-26T08:12:21.509Z,25.88
2018-07-26T08:13:21.469Z,25.95
2018-07-26T08:14:21.430Z,25.91
2018-07-26T08:15:21.390Z,26.10
2018-07-26T08:16:21.379Z,26.22
2018-07-26T08:17:21.308Z,26.22
2018-07-26T08:18:21.271Z,26.22
2018-07-26T08:19:21.232Z,26.25
2018-07-26T08:20:21.225Z,26.37
2018-07-26T08:21:21.197Z,26.37
2018-07-26T08:22:21.149Z,26.44
2018-07-26T08:23:21.070Z,26.62
2018-07-26T08:24:21.031Z,26.74
2018-07-26T08:25:20.989Z,26.75
2018-07-26T08:26:20.981Z,26.89
2018-07-26T08:27:20.911Z,27.00
2018-07-26T08:28:20.905Z,27.11
2018-07-26T08:29:20.897Z,27.20
2018-07-26T08:30:20.823Z,27.27
2018-07-26T08:31:20.784Z,27.51
2018-07-26T08:32:20.712Z,27.67
2018-07-26T08:33:20.674Z,28.01
2018-07-26T08:34:20.634Z,28.15
2018-07-26T08:35:20.592Z,28.49
2018-07-26T08:36:20.585Z,28.67
2018-07-26T08:37:20.515Z,28.86
2018-07-26T08:38:20.478Z,29.05
2018-07-26T08:39:20.475Z,29.29
2018-07-26T08:40:20.397Z,29.60
2018-07-26T08:41:20.356Z,29.91
2018-07-26T08:42:20.348Z,30.31
2018-07-26T08:43:20.276Z,30.48
2018-07-26T08:44:20.244Z,30.81
2018-07-26T08:45:20.202Z,31.03
2018-07-26T08:46:20.249Z,31.24
2018-07-26T08:47:20.634Z,31.40
2018-07-26T08:48:20.127Z,31.62
2018-07-26T08:49:20.050Z,31.78
2018-07-26T08:50:20.008Z,31.94
2018-07-26T08:51:20.008Z,32.08
2018-07-26T08:52:19.999Z,32.23
2018-07-26T08:53:19.895Z,32.45
2018-07-26T08:54:19.874Z,32.58
2018-07-26T08:55:19.817Z,32.74
2018-07-26T08:56:19.786Z,32.83
2018-07-26T08:57:19.774Z,33.08
2018-07-26T08:58:19.739Z,33.14
2018-07-26T08:59:19.705Z,33.14
2018-07-26T09:00:19.626Z,33.17
2018-07-26T09:01:19.642Z,33.28
2018-07-26T09:02:19.551Z,33.23
2018-07-26T09:03:19.514Z,33.24
2018-07-26T09:04:19.476Z,33.42
2018-07-26T09:05:19.438Z,33.45
2018-07-26T09:06:19.435Z,33.30
2018-07-26T09:07:19.370Z,33.27
2018-07-26T09:08:19.326Z,33.17
2018-07-26T09:09:19.288Z,33.12
2018-07-26T09:10:19.284Z,33.24
2018-07-26T09:11:19.250Z,33.42
2018-07-26T09:12:19.210Z,33.43
2018-07-26T09:13:19.185Z,33.57
2018-07-26T09:14:19.105Z,33.69
2018-07-26T09:15:19.069Z,33.77
2018-07-26T09:16:19.029Z,33.86
2018-07-26T09:17:19.036Z,33.87
2018-07-26T09:18:18.957Z,33.84
2018-07-26T09:19:18.921Z,34.05
2018-07-26T09:20:18.885Z,34.16
2018-07-26T09:21:18.848Z,34.21
2018-07-26T09:22:18.844Z,34.23
2018-07-26T09:23:18.775Z,34.18
2018-07-26T09:24:19.204Z,34.32
2018-07-26T09:25:18.702Z,34.17
2018-07-26T09:26:18.713Z,34.02
2018-07-26T09:27:18.629Z,34.18
2018-07-26T09:28:18.590Z,34.20
2018-07-26T09:29:18.589Z,34.32
2018-07-26T09:30:18.518Z,34.38
2018-07-26T09:31:18.481Z,34.42
2018-07-26T09:32:18.449Z,34.45
2018-07-26T09:33:18.459Z,34.52
2018-07-26T09:34:18.406Z,34.58
2018-07-26T09:35:18.340Z,34.60
2018-07-26T09:36:18.303Z,34.67
2018-07-26T09:37:18.297Z,34.74
2018-07-26T09:38:18.229Z,34.90
2018-07-26T09:39:18.194Z,35.08
2018-07-26T09:40:18.160Z,35.10
2018-07-26T09:41:18.122Z,35.33
2018-07-26T09:42:18.128Z,35.46
2018-07-26T09:43:18.052Z,35.51
2018-07-26T09:44:18.016Z,35.60
2018-07-26T09:45:17.982Z,35.71
2018-07-26T09:46:17.945Z,35.80
2018-07-26T09:47:17.953Z,35.92
2018-07-26T09:48:17.880Z,36.00
2018-07-26T09:49:17.840Z,36.24
2018-07-26T09:50:17.838Z,36.37
2018-07-26T09:51:17.797Z,36.37
2018-07-26T09:52:17.732Z,36.40
2018-07-26T09:53:17.699Z,36.35
2018-07-26T09:54:17.661Z,36.40
2018-07-26T09:55:17.627Z,36.49
2018-07-26T09:56:17.622Z,36.52
2018-07-26T09:57:17.561Z,36.62
2018-07-26T09:58:17.522Z,36.76
2018-07-26T09:59:17.488Z,36.84
2018-07-26T10:00:17.497Z,36.88
2018-07-26T10:01:17.418Z,36.84
2018-07-26T10:02:17.412Z,36.92
2018-07-26T10:03:17.382Z,36.68
2018-07-26T10:04:17.315Z,36.74
2018-07-26T10:05:17.282Z,36.76
2018-07-26T10:06:17.246Z,36.84
2018-07-26T10:07:17.244Z,36.95
2018-07-26T10:08:17.211Z,37.11
2018-07-26T10:09:17.143Z,37.13
2018-07-26T10:10:17.134Z,37.23
2018-07-26T10:11:17.072Z,37.37
2018-07-26T10:12:17.085Z,37.45
2018-07-26T10:13:17.003Z,37.49
2018-07-26T10:14:16.973Z,37.59
2018-07-26T10:15:16.937Z,37.55
2018-07-26T10:16:16.902Z,37.63
2018-07-26T10:17:16.898Z,37.64
2018-07-26T10:18:16.834Z,37.68
2018-07-26T10:19:16.800Z,37.75
2018-07-26T10:20:16.864Z,37.75
2018-07-26T10:21:16.729Z,37.65
2018-07-26T10:22:16.731Z,37.68
2018-07-26T10:23:16.665Z,37.74
2018-07-26T10:24:16.632Z,37.56
2018-07-26T10:25:16.628Z,37.51
2018-07-26T10:26:16.567Z,37.60
2018-07-26T10:27:16.532Z,37.80
2018-07-26T10:28:16.494Z,37.86
2018-07-26T10:29:16.508Z,37.94
2018-07-26T10:30:16.430Z,37.97
2018-07-26T10:31:16.394Z,38.12
2018-07-26T10:32:16.362Z,38.24
2018-07-26T10:33:16.328Z,38.24
2018-07-26T10:34:16.330Z,38.28
2018-07-26T10:35:16.261Z,38.30
2018-07-26T10:36:16.231Z,37.89
2018-07-26T10:37:16.193Z,37.13
2018-07-26T10:38:16.159Z,36.74
2018-07-26T10:39:16.161Z,36.42
2018-07-26T10:40:16.097Z,36.49
2018-07-26T10:41:16.062Z,36.61
2018-07-26T10:42:16.034Z,37.02
2018-07-26T10:43:15.995Z,37.32
2018-07-26T10:44:15.993Z,37.20
2018-07-26T10:45:15.927Z,37.45
2018-07-26T10:46:15.896Z,37.59
2018-07-26T10:47:15.861Z,37.60
2018-07-26T10:48:15.826Z,37.68
2018-07-26T10:49:15.826Z,37.64
2018-07-26T10:50:15.763Z,37.75
2018-07-26T10:51:15.729Z,38.01
2018-07-26T10:52:15.694Z,38.11
2018-07-26T10:53:15.662Z,38.19
2018-07-26T10:54:15.662Z,38.05
2018-07-26T10:55:15.597Z,38.05
2018-07-26T10:56:15.567Z,38.19
2018-07-26T10:57:15.530Z,38.34
2018-07-26T10:58:15.543Z,38.34
2018-07-26T10:59:15.471Z,38.33
2018-07-26T11:00:15.474Z,38.43
2018-07-26T11:01:15.430Z,38.50
2018-07-26T11:02:15.368Z,38.50
2018-07-26T11:03:15.334Z,38.52
2018-07-26T11:04:15.300Z,38.58
2018-07-26T11:05:15.264Z,38.64
2018-07-26T11:06:15.267Z,38.69
2018-07-26T11:07:15.210Z,38.74
2018-07-26T11:08:15.172Z,38.89
2018-07-26T11:09:15.136Z,38.62
2018-07-26T11:10:15.103Z,38.15
2018-07-26T11:11:15.105Z,37.90
2018-07-26T11:12:15.089Z,37.90
2018-07-26T11:13:15.011Z,38.14
2018-07-26T11:14:14.976Z,38.31
2018-07-26T11:15:14.992Z,38.39
2018-07-26T11:16:14.908Z,38.49
2018-07-26T11:17:14.910Z,38.61
2018-07-26T11:18:14.847Z,38.71
2018-07-26T11:19:14.847Z,38.82
2018-07-26T11:20:14.820Z,38.99
2018-07-26T11:21:14.748Z,39.09
2018-07-26T11:22:14.719Z,39.17
2018-07-26T11:23:14.681Z,39.19
2018-07-26T11:24:14.706Z,39.14
2018-07-26T11:25:14.655Z,39.04
2018-07-26T11:26:14.584Z,39.17
2018-07-26T11:27:14.556Z,38.99
2018-07-26T11:28:14.528Z,38.83
2018-07-26T11:29:14.488Z,38.91
2018-07-26T11:30:14.494Z,38.91
2018-07-26T11:31:14.423Z,39.00
2018-07-26T11:32:14.395Z,39.12
2018-07-26T11:33:14.363Z,39.18
2018-07-26T11:34:14.330Z,39.31
2018-07-26T11:35:14.326Z,39.34
2018-07-26T11:36:14.263Z,39.38
2018-07-26T11:37:14.262Z,39.36
2018-07-26T11:38:14.200Z,39.40
2018-07-26T11:39:14.168Z,39.49
2018-07-26T11:40:14.135Z,39.56
2018-07-26T11:41:14.100Z,39.62
2018-07-26T11:42:14.111Z,39.55
2018-07-26T11:43:14.040Z,39.55
2018-07-26T11:44:14.006Z,39.18
2018-07-26T11:45:13.972Z,39.17
2018-07-26T11:46:13.942Z,39.18
2018-07-26T11:47:13.944Z,39.12
2018-07-26T11:48:13.875Z,38.83
2018-07-26T11:49:13.870Z,38.50
2018-07-26T11:50:13.849Z,37.70
2018-07-26T11:51:13.787Z,37.45
2018-07-26T11:52:13.748Z,37.39
2018-07-26T11:53:13.717Z,37.48
2018-07-26T11:54:13.711Z,37.77
2018-07-26T11:55:13.692Z,38.09
2018-07-26T11:56:13.644Z,38.27
2018-07-26T11:57:13.591Z,38.49
2018-07-26T11:58:13.558Z,38.64
2018-07-26T11:59:13.526Z,38.83
2018-07-26T12:00:13.496Z,38.99
2018-07-26T12:01:13.486Z,39.15
2018-07-26T12:02:13.429Z,39.22
2018-07-26T12:03:13.397Z,39.36
2018-07-26T12:04:13.364Z,38.79
2018-07-26T12:05:13.332Z,38.12
2018-07-26T12:06:13.342Z,37.49
2018-07-26T12:07:13.271Z,36.81
2018-07-26T12:08:13.262Z,37.02
2018-07-26T12:09:13.203Z,36.92
2018-07-26T12:10:13.175Z,37.03
2018-07-26T12:11:13.179Z,37.20
2018-07-26T12:12:13.108Z,37.33
2018-07-26T12:13:13.084Z,37.56
2018-07-26T12:14:13.061Z,37.96
2018-07-26T12:15:13.011Z,38.33
2018-07-26T12:16:13.014Z,38.38
2018-07-26T12:17:12.948Z,38.49
2018-07-26T12:18:12.915Z,38.58
2018-07-26T12:19:12.888Z,38.62
2018-07-26T12:20:12.851Z,38.71
2018-07-26T12:21:12.857Z,38.71
2018-07-26T12:22:12.788Z,38.71
2018-07-26T12:23:12.782Z,38.95
2018-07-26T12:24:12.725Z,39.15
2018-07-26T12:25:12.724Z,39.29
2018-07-26T12:26:12.694Z,39.41
2018-07-26T12:27:12.718Z,39.62
2018-07-26T12:28:12.607Z,39.78
2018-07-26T12:29:12.564Z,39.85
2018-07-26T12:30:12.531Z,40.00
2018-07-26T12:31:12.499Z,40.08
2018-07-26T12:32:12.505Z,39.99
2018-07-26T12:33:12.468Z,39.71
2018-07-26T12:34:12.409Z,39.85
2018-07-26T12:35:12.372Z,39.86
2018-07-26T12:36:12.343Z,39.56
2018-07-26T12:37:12.311Z,39.41
2018-07-26T12:38:12.310Z,39.29
2018-07-26T12:39:12.246Z,39.26
2018-07-26T12:40:12.220Z,39.44
2018-07-26T12:41:12.188Z,39.67
2018-07-26T12:42:12.152Z,39.60
2018-07-26T12:43:12.151Z,39.36
2018-07-26T12:44:12.131Z,38.65
2018-07-26T12:45:12.060Z,38.42
2018-07-26T12:46:12.028Z,38.28
2018-07-26T12:47:11.998Z,38.17
2018-07-26T12:48:11.964Z,37.89
2018-07-26T12:49:11.963Z,37.78
2018-07-26T12:50:11.902Z,37.72
2018-07-26T12:51:11.867Z,37.68
2018-07-26T12:52:11.838Z,37.67